Time;durP1;ratioP1;P1;durP2;ratioP2;P2;SDS_P1;SDS_P2;PMS_P1;PMS_P2;Temp;Humidity;BMP_temperature;BMP_pressure;BME280_temperature;BME280_humidity;BME280_pressure;Samples;Min_cycle;Max_cycle;Signal;HPM_P1;HPM_P2
2022/03/31 00:00:16;;;;;;;18.63;14.87;;;;;;;;;;510896;28;1594;-82
2022/03/31 00:00:43;;;;;;;18.48;14.50;;;;;;;;;;508656;29;1489;-82
2022/03/31 00:00:58;;;;;;;18.40;14.57;;;;;;;;;;508457;29;1354;-82
2022/03/31 00:01:14;;;;;;;18.88;14.60;;;;;;;;;;508424;29;1682;-82
2022/03/31 00:01:29;;;;;;;18.40;14.70;;;;;;;;;;510732;28;1453;-82
2022/03/31 00:01:44;;;;;;;17.40;14.35;;;;;;;;;;512125;28;1452;-82
2022/03/31 00:02:00;;;;;;;17.03;14.13;;;;;;;;;;514389;28;1443;-82
2022/03/31 00:02:15;;;;;;;17.40;14.30;;;;;;;;;;514353;28;1389;-82
2022/03/31 00:02:30;;;;;;;18.58;14.63;;;;;;;;;;512846;28;1571;-82
2022/03/31 00:02:46;;;;;;;18.93;15.23;;;;;;;;;;512872;28;1873;-82
2022/03/31 00:03:04;;;;;;;18.05;14.75;;;;;;;;;;512462;28;1627;-82
2022/03/31 00:03:20;;;;;;;18.88;15.02;;;;;;;;;;512312;28;1473;-82
2022/03/31 00:03:36;;;;;;;19.05;15.07;;;;;;;;;;511679;28;1493;-82
2022/03/31 00:03:51;;;;;;;19.00;14.63;;;;;;;;;;512389;28;1790;-82
2022/03/31 00:04:07;;;;;;;19.40;14.73;;;;;;;;;;512861;28;1531;-82
2022/03/31 00:04:22;;;;;;;18.70;14.73;;;;;;;;;;512687;28;1676;-82
2022/03/31 00:04:38;;;;;;;17.42;14.27;;;;;;;;;;512592;28;1573;-82
2022/03/31 00:04:53;;;;;;;16.57;14.17;;;;;;;;;;513112;28;1439;-82
2022/03/31 00:05:09;;;;;;;17.02;14.60;;;;;;;;;;512640;28;1557;-82
2022/03/31 00:05:25;;;;;;;18.02;14.90;;;;;;;;;;510974;28;1483;-82
2022/03/31 00:05:41;;;;;;;18.50;14.60;;;;;;;;;;510377;28;1563;-82
2022/03/31 00:05:56;;;;;;;18.20;14.30;;;;;;;;;;508546;29;1382;-82
2022/03/31 00:06:12;;;;;;;17.97;14.20;;;;;;;;;;508501;29;1469;-82
2022/03/31 00:06:27;;;;;;;19.08;14.48;;;;;;;;;;508561;29;1711;-82
2022/03/31 00:06:43;;;;;;;19.07;14.80;;;;;;;;;;509366;29;1437;-82
2022/03/31 00:06:58;;;;;;;18.38;14.77;;;;;;;;;;508253;29;1811;-82
2022/03/31 00:07:13;;;;;;;17.77;14.30;;;;;;;;;;508898;28;1465;-82
2022/03/31 00:07:29;;;;;;;18.07;14.37;;;;;;;;;;510987;28;1499;-82
2022/03/31 00:07:49;;;;;;;18.23;14.60;;;;;;;;;;510275;28;1487;-82
2022/03/31 00:08:06;;;;;;;17.33;13.88;;;;;;;;;;510012;28;1422;-82
2022/03/31 00:08:22;;;;;;;18.02;14.00;;;;;;;;;;510109;28;1739;-82
2022/03/31 00:08:37;;;;;;;16.95;14.13;;;;;;;;;;510526;28;1391;-82
2022/03/31 00:08:53;;;;;;;18.17;14.40;;;;;;;;;;511507;28;1701;-82
2022/03/31 00:09:09;;;;;;;18.67;14.20;;;;;;;;;;512628;28;1969;-82
2022/03/31 00:09:24;;;;;;;16.33;13.32;;;;;;;;;;512786;28;1850;-82
2022/03/31 00:09:39;;;;;;;17.00;13.60;;;;;;;;;;511366;28;1477;-82
2022/03/31 00:09:55;;;;;;;17.77;13.70;;;;;;;;;;511246;28;1523;-82
2022/03/31 00:10:10;;;;;;;17.60;13.70;;;;;;;;;;512501;28;1732;-82
2022/03/31 00:10:39;;;;;;;17.93;14.13;;;;;;;;;;510519;28;1433;-82
2022/03/31 00:10:55;;;;;;;17.90;14.55;;;;;;;;;;510372;28;1465;-82
2022/03/31 00:11:12;;;;;;;17.77;14.23;;;;;;;;;;510794;28;1501;-82
2022/03/31 00:11:27;;;;;;;17.70;14.30;;;;;;;;;;508806;29;1548;-82
2022/03/31 00:11:43;;;;;;;17.73;14.30;;;;;;;;;;509254;29;1511;-82
2022/03/31 00:11:59;;;;;;;17.63;14.02;;;;;;;;;;506960;29;1470;-82
2022/03/31 00:12:14;;;;;;;18.48;14.35;;;;;;;;;;506870;29;1950;-82
2022/03/31 00:12:30;;;;;;;18.27;14.50;;;;;;;;;;508245;29;1650;-82
2022/03/31 00:12:46;;;;;;;16.98;14.13;;;;;;;;;;507261;29;1556;-82
2022/03/31 00:13:04;;;;;;;17.48;13.93;;;;;;;;;;507337;29;1418;-82
2022/03/31 00:13:23;;;;;;;18.73;14.25;;;;;;;;;;507473;29;1349;-82
2022/03/31 00:13:41;;;;;;;19.73;14.35;;;;;;;;;;510148;28;1473;-82
2022/03/31 00:13:56;;;;;;;19.15;14.27;;;;;;;;;;510372;28;1461;-82
2022/03/31 00:14:11;;;;;;;17.80;14.10;;;;;;;;;;510586;28;1733;-82
2022/03/31 00:14:27;;;;;;;17.42;14.02;;;;;;;;;;510165;28;1676;-82
2022/03/31 00:14:42;;;;;;;18.23;14.33;;;;;;;;;;512435;28;1366;-82
2022/03/31 00:14:58;;;;;;;17.70;14.02;;;;;;;;;;512024;28;1572;-82
2022/03/31 00:15:13;;;;;;;16.93;13.80;;;;;;;;;;513039;28;1448;-82
2022/03/31 00:15:30;;;;;;;17.70;13.57;;;;;;;;;;510401;28;1466;-82
2022/03/31 00:15:46;;;;;;;19.67;13.80;;;;;;;;;;510320;28;1464;-82
2022/03/31 00:16:02;;;;;;;19.20;14.43;;;;;;;;;;511082;28;1489;-82
2022/03/31 00:16:17;;;;;;;18.02;14.45;;;;;;;;;;510793;28;1429;-82
2022/03/31 00:16:33;;;;;;;18.47;13.87;;;;;;;;;;508666;29;1498;-82
2022/03/31 00:16:49;;;;;;;19.73;13.90;;;;;;;;;;509728;28;1584;-82
2022/03/31 00:17:04;;;;;;;18.63;13.77;;;;;;;;;;508843;29;1649;-82
2022/03/31 00:17:20;;;;;;;17.60;13.40;;;;;;;;;;509463;28;1338;-82
2022/03/31 00:17:35;;;;;;;17.60;13.15;;;;;;;;;;508802;28;1421;-82
2022/03/31 00:17:51;;;;;;;17.55;13.18;;;;;;;;;;507923;28;1400;-82
2022/03/31 00:18:07;;;;;;;16.97;13.13;;;;;;;;;;510650;28;1539;-82
2022/03/31 00:18:23;;;;;;;16.27;13.50;;;;;;;;;;511119;28;1434;-82
2022/03/31 00:18:39;;;;;;;16.02;13.38;;;;;;;;;;510573;28;1533;-82
2022/03/31 00:18:55;;;;;;;16.67;13.10;;;;;;;;;;511552;28;1488;-82
2022/03/31 00:19:10;;;;;;;17.70;13.63;;;;;;;;;;512854;28;1495;-82
2022/03/31 00:19:25;;;;;;;18.17;14.20;;;;;;;;;;513078;28;1567;-82
2022/03/31 00:19:41;;;;;;;17.60;14.07;;;;;;;;;;513616;28;1854;-82
2022/03/31 00:19:56;;;;;;;17.50;13.63;;;;;;;;;;514415;28;1436;-82
2022/03/31 00:20:12;;;;;;;18.65;13.98;;;;;;;;;;514302;28;1400;-82
2022/03/31 00:20:28;;;;;;;19.10;14.57;;;;;;;;;;513726;28;1618;-82
2022/03/31 00:20:43;;;;;;;18.98;14.27;;;;;;;;;;512330;28;1372;-82
2022/03/31 00:21:00;;;;;;;19.30;14.20;;;;;;;;;;510514;28;1523;-82
2022/03/31 00:21:15;;;;;;;18.85;14.27;;;;;;;;;;509276;28;1659;-82
2022/03/31 00:21:30;;;;;;;18.80;14.40;;;;;;;;;;510511;28;1405;-82
2022/03/31 00:21:48;;;;;;;18.33;13.80;;;;;;;;;;510338;28;1430;-82
2022/03/31 00:22:03;;;;;;;17.63;13.57;;;;;;;;;;510382;28;1439;-82
2022/03/31 00:22:19;;;;;;;17.45;13.75;;;;;;;;;;511119;28;2087;-82
2022/03/31 00:22:34;;;;;;;19.00;13.57;;;;;;;;;;508253;29;1414;-82
2022/03/31 00:22:50;;;;;;;19.08;13.70;;;;;;;;;;507490;29;1360;-82
2022/03/31 00:23:05;;;;;;;17.90;13.70;;;;;;;;;;506813;29;1795;-82
2022/03/31 00:23:21;;;;;;;18.08;13.40;;;;;;;;;;508909;29;1581;-82
2022/03/31 00:23:37;;;;;;;17.13;13.43;;;;;;;;;;509198;28;1469;-82
2022/03/31 00:23:52;;;;;;;16.60;13.32;;;;;;;;;;508159;28;1453;-82
2022/03/31 00:24:08;;;;;;;16.90;13.73;;;;;;;;;;506445;29;1340;-82
2022/03/31 00:24:25;;;;;;;16.73;13.88;;;;;;;;;;506537;29;1440;-82
2022/03/31 00:24:41;;;;;;;17.92;13.65;;;;;;;;;;508199;29;1773;-82
2022/03/31 00:24:56;;;;;;;20.40;13.80;;;;;;;;;;511712;28;1676;-82
2022/03/31 00:25:12;;;;;;;19.80;13.93;;;;;;;;;;510185;28;1490;-82
2022/03/31 00:25:27;;;;;;;16.97;13.77;;;;;;;;;;507920;29;1493;-82
2022/03/31 00:25:43;;;;;;;17.15;13.80;;;;;;;;;;509100;29;1507;-82
2022/03/31 00:25:58;;;;;;;17.23;13.52;;;;;;;;;;510387;28;1925;-82
2022/03/31 00:26:15;;;;;;;17.20;13.60;;;;;;;;;;510553;28;1465;-82
2022/03/31 00:26:30;;;;;;;17.70;14.07;;;;;;;;;;511296;28;1424;-82
2022/03/31 00:26:45;;;;;;;17.75;13.52;;;;;;;;;;510722;28;2126;-82
2022/03/31 00:27:01;;;;;;;17.10;12.77;;;;;;;;;;513419;28;1676;-82
2022/03/31 00:27:16;;;;;;;18.02;13.07;;;;;;;;;;515125;28;1486;-82
2022/03/31 00:27:32;;;;;;;19.67;13.47;;;;;;;;;;516310;28;1403;-82
2022/03/31 00:27:47;;;;;;;18.67;13.40;;;;;;;;;;514478;28;1707;-82
2022/03/31 00:28:05;;;;;;;16.48;13.10;;;;;;;;;;514777;28;1537;-82
2022/03/31 00:28:21;;;;;;;15.90;13.05;;;;;;;;;;514499;28;1498;-82
2022/03/31 00:28:37;;;;;;;16.83;13.48;;;;;;;;;;514346;28;1390;-82
2022/03/31 00:28:52;;;;;;;18.15;14.00;;;;;;;;;;514440;28;1583;-82
2022/03/31 00:29:08;;;;;;;18.13;13.63;;;;;;;;;;512609;28;1639;-82
2022/03/31 00:29:24;;;;;;;18.38;13.63;;;;;;;;;;512993;28;1393;-82
2022/03/31 00:29:39;;;;;;;17.83;13.45;;;;;;;;;;511948;28;1653;-82
2022/03/31 00:29:55;;;;;;;16.90;13.13;;;;;;;;;;512864;28;1420;-82
2022/03/31 00:30:12;;;;;;;17.35;13.45;;;;;;;;;;510751;28;1498;-82
2022/03/31 00:30:30;;;;;;;17.95;13.23;;;;;;;;;;510466;28;1556;-82
2022/03/31 00:30:45;;;;;;;17.33;13.07;;;;;;;;;;511595;28;1445;-82
2022/03/31 00:31:01;;;;;;;17.20;13.00;;;;;;;;;;511199;28;1464;-82
2022/03/31 00:31:16;;;;;;;17.07;12.80;;;;;;;;;;510826;28;1569;-82
2022/03/31 00:31:32;;;;;;;16.23;12.77;;;;;;;;;;510940;28;1501;-82
2022/03/31 00:31:48;;;;;;;16.45;13.05;;;;;;;;;;511680;28;1534;-82
2022/03/31 00:32:04;;;;;;;16.48;12.90;;;;;;;;;;513719;28;1452;-82
2022/03/31 00:32:20;;;;;;;15.82;12.50;;;;;;;;;;512449;28;1444;-82
2022/03/31 00:32:35;;;;;;;15.90;12.68;;;;;;;;;;512786;28;1580;-82
2022/03/31 00:32:52;;;;;;;16.80;13.20;;;;;;;;;;512468;28;1667;-82
2022/03/31 00:33:08;;;;;;;16.73;12.90;;;;;;;;;;512783;28;1627;-82
2022/03/31 00:33:23;;;;;;;15.60;12.70;;;;;;;;;;511290;28;1735;-82
2022/03/31 00:33:39;;;;;;;15.98;12.88;;;;;;;;;;510334;28;1626;-82
2022/03/31 00:33:55;;;;;;;15.83;12.83;;;;;;;;;;511353;28;1703;-82
2022/03/31 00:34:10;;;;;;;16.42;12.98;;;;;;;;;;510865;28;1590;-82
2022/03/31 00:34:26;;;;;;;17.33;12.57;;;;;;;;;;509690;28;1405;-82
2022/03/31 00:34:42;;;;;;;16.90;12.43;;;;;;;;;;509972;28;1543;-82
2022/03/31 00:34:57;;;;;;;17.60;12.57;;;;;;;;;;507610;28;1535;-82
2022/03/31 00:35:13;;;;;;;16.83;12.37;;;;;;;;;;508498;29;1569;-82
2022/03/31 00:35:28;;;;;;;16.33;12.32;;;;;;;;;;510514;28;1500;-82
2022/03/31 00:35:44;;;;;;;16.85;12.80;;;;;;;;;;510061;28;1417;-82
2022/03/31 00:35:59;;;;;;;17.47;13.17;;;;;;;;;;510112;28;1504;-82
2022/03/31 00:36:15;;;;;;;17.35;12.80;;;;;;;;;;509873;28;1374;-82
2022/03/31 00:36:30;;;;;;;16.63;12.87;;;;;;;;;;510196;28;1430;-82
2022/03/31 00:36:46;;;;;;;16.17;12.77;;;;;;;;;;510742;28;1354;-82
2022/03/31 00:37:02;;;;;;;14.90;12.23;;;;;;;;;;512521;28;1481;-82
2022/03/31 00:37:17;;;;;;;14.55;12.18;;;;;;;;;;512687;28;1623;-82
2022/03/31 00:37:34;;;;;;;15.17;12.40;;;;;;;;;;512580;28;1563;-82
2022/03/31 00:37:49;;;;;;;15.32;12.00;;;;;;;;;;514454;28;1448;-82
2022/03/31 00:38:05;;;;;;;17.58;12.10;;;;;;;;;;512516;28;1751;-82
2022/03/31 00:38:20;;;;;;;17.53;12.40;;;;;;;;;;512903;28;1434;-82
2022/03/31 00:38:36;;;;;;;15.63;12.43;;;;;;;;;;513083;28;1546;-82
2022/03/31 00:39:31;;;;;;;16.17;12.50;;;;;;;;;;509922;29;1830;-82
2022/03/31 00:39:37;;;;;;;16.73;12.63;;;;;;;;;;512380;28;1670;-82
2022/03/31 00:39:48;;;;;;;16.92;12.20;;;;;;;;;;510232;28;1558;-82
2022/03/31 00:40:04;;;;;;;15.15;11.93;;;;;;;;;;512207;28;1397;-82
2022/03/31 00:40:21;;;;;;;16.55;12.30;;;;;;;;;;510618;28;1362;-82
2022/03/31 00:40:37;;;;;;;18.27;12.60;;;;;;;;;;510279;28;1617;-82
2022/03/31 00:40:52;;;;;;;17.08;12.38;;;;;;;;;;510017;28;1595;-82
2022/03/31 00:41:08;;;;;;;15.77;12.68;;;;;;;;;;510026;28;1378;-82
2022/03/31 00:41:26;;;;;;;15.93;12.80;;;;;;;;;;508030;29;1519;-82
2022/03/31 00:41:42;;;;;;;17.02;12.80;;;;;;;;;;508541;29;1426;-82
2022/03/31 00:41:59;;;;;;;17.00;12.57;;;;;;;;;;510402;28;1627;-82
2022/03/31 00:42:16;;;;;;;16.95;12.48;;;;;;;;;;511701;28;1496;-82
2022/03/31 00:42:31;;;;;;;16.55;12.38;;;;;;;;;;510608;28;1591;-81
2022/03/31 00:42:49;;;;;;;16.17;12.18;;;;;;;;;;510639;28;1635;-82
2022/03/31 00:43:05;;;;;;;16.33;12.10;;;;;;;;;;510530;28;1819;-82
2022/03/31 00:43:20;;;;;;;17.13;11.80;;;;;;;;;;510325;28;1434;-82
2022/03/31 00:43:36;;;;;;;16.43;11.83;;;;;;;;;;508133;29;1427;-82
2022/03/31 00:43:51;;;;;;;14.77;12.03;;;;;;;;;;509905;28;1661;-82
2022/03/31 00:44:07;;;;;;;14.52;12.32;;;;;;;;;;508580;29;1481;-82
2022/03/31 00:44:22;;;;;;;15.67;12.30;;;;;;;;;;509184;28;1491;-82
2022/03/31 00:44:37;;;;;;;15.50;12.10;;;;;;;;;;510558;28;1442;-82
2022/03/31 00:44:53;;;;;;;15.37;12.10;;;;;;;;;;510447;28;1402;-82
2022/03/31 00:45:13;;;;;;;17.50;12.20;;;;;;;;;;511225;28;1298;-82
2022/03/31 00:45:46;;;;;;;17.45;12.40;;;;;;;;;;509172;28;1517;-82
2022/03/31 00:46:01;;;;;;;16.13;11.95;;;;;;;;;;509235;28;1371;-82
2022/03/31 00:46:20;;;;;;;16.33;12.17;;;;;;;;;;508657;29;1746;-82
2022/03/31 00:46:46;;;;;;;15.82;11.95;;;;;;;;;;510049;28;1823;-82
2022/03/31 00:47:01;;;;;;;14.65;11.85;;;;;;;;;;508931;29;1523;-82
2022/03/31 00:47:18;;;;;;;15.43;12.20;;;;;;;;;;508151;28;1493;-82
2022/03/31 00:47:34;;;;;;;16.00;12.05;;;;;;;;;;510099;28;1558;-82
2022/03/31 00:47:51;;;;;;;14.88;11.60;;;;;;;;;;510674;28;1576;-82
2022/03/31 00:48:08;;;;;;;15.77;11.98;;;;;;;;;;511136;28;1535;-82
2022/03/31 00:48:23;;;;;;;17.20;12.07;;;;;;;;;;509708;28;1880;-82
2022/03/31 00:48:39;;;;;;;17.03;11.93;;;;;;;;;;511080;28;1556;-82
2022/03/31 00:48:54;;;;;;;16.15;11.88;;;;;;;;;;509609;28;1500;-81
2022/03/31 00:49:10;;;;;;;16.00;11.93;;;;;;;;;;509182;29;1446;-82
2022/03/31 00:49:26;;;;;;;15.82;12.20;;;;;;;;;;509002;29;1698;-82
2022/03/31 00:49:41;;;;;;;17.20;12.20;;;;;;;;;;505523;29;1617;-82
2022/03/31 00:49:57;;;;;;;15.87;11.67;;;;;;;;;;506968;29;1446;-81
2022/03/31 00:50:13;;;;;;;15.50;12.05;;;;;;;;;;507175;29;1690;-82
2022/03/31 00:50:30;;;;;;;16.20;12.73;;;;;;;;;;508929;28;1541;-82
2022/03/31 00:50:47;;;;;;;15.60;12.30;;;;;;;;;;510939;28;1267;-82
2022/03/31 00:51:03;;;;;;;15.35;11.75;;;;;;;;;;513813;28;1878;-82
2022/03/31 00:51:19;;;;;;;15.25;11.45;;;;;;;;;;512425;28;1447;-82
2022/03/31 00:51:34;;;;;;;15.13;11.52;;;;;;;;;;511144;28;1453;-82
2022/03/31 00:51:52;;;;;;;15.27;11.57;;;;;;;;;;512159;28;1433;-82
2022/03/31 00:52:08;;;;;;;15.18;11.48;;;;;;;;;;512741;28;1938;-82
2022/03/31 00:52:23;;;;;;;15.13;11.10;;;;;;;;;;512468;28;1589;-82
2022/03/31 00:52:39;;;;;;;15.30;11.13;;;;;;;;;;513690;28;1361;-82
2022/03/31 00:52:55;;;;;;;15.13;11.63;;;;;;;;;;510908;28;1472;-82
2022/03/31 00:53:11;;;;;;;15.27;11.87;;;;;;;;;;511178;28;1460;-82
2022/03/31 00:53:26;;;;;;;15.13;11.43;;;;;;;;;;513921;28;1551;-82
2022/03/31 00:53:42;;;;;;;13.53;10.80;;;;;;;;;;514801;28;1473;-82
2022/03/31 00:53:57;;;;;;;13.70;11.23;;;;;;;;;;512382;28;1429;-82
2022/03/31 00:54:15;;;;;;;15.73;11.60;;;;;;;;;;512771;28;1500;-81
2022/03/31 00:54:32;;;;;;;15.65;11.40;;;;;;;;;;510397;28;2701;-82
2022/03/31 00:54:48;;;;;;;14.85;11.75;;;;;;;;;;509224;29;1452;-82
2022/03/31 00:55:05;;;;;;;15.27;12.03;;;;;;;;;;509786;29;1463;-82
2022/03/31 00:55:21;;;;;;;14.40;11.57;;;;;;;;;;510552;28;1490;-82
2022/03/31 00:55:37;;;;;;;14.88;11.77;;;;;;;;;;511261;28;1571;-82
2022/03/31 00:55:52;;;;;;;15.98;11.98;;;;;;;;;;512454;28;1492;-82
2022/03/31 00:56:09;;;;;;;15.02;11.60;;;;;;;;;;511571;28;1784;-82
2022/03/31 00:56:25;;;;;;;14.38;11.57;;;;;;;;;;510073;28;1902;-82
2022/03/31 00:56:41;;;;;;;14.32;11.45;;;;;;;;;;511412;28;1482;-82
2022/03/31 00:56:57;;;;;;;15.23;11.65;;;;;;;;;;511187;28;1449;-82
2022/03/31 00:57:13;;;;;;;15.38;11.80;;;;;;;;;;510785;28;1576;-82
2022/03/31 00:57:29;;;;;;;15.13;11.80;;;;;;;;;;510754;28;1487;-82
2022/03/31 00:57:46;;;;;;;14.93;11.73;;;;;;;;;;510741;28;1516;-82
2022/03/31 00:58:01;;;;;;;15.23;11.45;;;;;;;;;;509578;29;1469;-82
2022/03/31 00:58:18;;;;;;;15.68;11.60;;;;;;;;;;508731;29;1497;-82
2022/03/31 00:58:33;;;;;;;15.15;11.63;;;;;;;;;;508638;29;1704;-82
2022/03/31 00:58:49;;;;;;;15.05;11.50;;;;;;;;;;508563;29;1837;-82
2022/03/31 00:59:08;;;;;;;15.93;11.98;;;;;;;;;;508029;29;1653;-82
2022/03/31 00:59:25;;;;;;;15.65;12.25;;;;;;;;;;509004;29;1682;-82
2022/03/31 00:59:40;;;;;;;16.88;12.02;;;;;;;;;;510144;28;1493;-82
2022/03/31 00:59:57;;;;;;;16.33;11.88;;;;;;;;;;510479;28;1575;-82
2022/03/31 01:00:14;;;;;;;15.00;11.85;;;;;;;;;;508916;29;1669;-82
2022/03/31 01:00:30;;;;;;;15.60;11.90;;;;;;;;;;510587;28;1544;-82
2022/03/31 01:00:46;;;;;;;16.63;12.18;;;;;;;;;;509935;29;1492;-82
2022/03/31 01:01:01;;;;;;;15.23;11.90;;;;;;;;;;508945;29;1428;-82
2022/03/31 01:01:18;;;;;;;14.38;11.80;;;;;;;;;;507204;29;1547;-82
2022/03/31 01:01:37;;;;;;;14.73;11.95;;;;;;;;;;506097;29;1697;-82
2022/03/31 01:01:53;;;;;;;15.48;11.90;;;;;;;;;;508381;29;1508;-82
2022/03/31 01:02:09;;;;;;;14.73;11.63;;;;;;;;;;510743;28;1571;-82
2022/03/31 01:02:30;;;;;;;14.53;11.63;;;;;;;;;;510622;28;1570;-82
2022/03/31 01:02:46;;;;;;;15.38;11.90;;;;;;;;;;508696;29;1461;-82
2022/03/31 01:03:02;;;;;;;15.20;12.00;;;;;;;;;;510913;28;1424;-82
2022/03/31 01:03:17;;;;;;;15.23;11.73;;;;;;;;;;510836;28;1500;-82
2022/03/31 01:03:35;;;;;;;15.73;12.07;;;;;;;;;;511919;28;1550;-82
2022/03/31 01:03:50;;;;;;;16.02;12.50;;;;;;;;;;509476;28;1448;-82
2022/03/31 01:04:06;;;;;;;15.87;12.20;;;;;;;;;;511531;28;1312;-82
2022/03/31 01:04:22;;;;;;;15.10;11.70;;;;;;;;;;511657;28;2348;-82
2022/03/31 01:04:39;;;;;;;14.73;11.63;;;;;;;;;;512872;28;1519;-82
2022/03/31 01:04:55;;;;;;;14.68;11.73;;;;;;;;;;514124;28;1476;-82
2022/03/31 01:05:12;;;;;;;15.88;11.52;;;;;;;;;;514286;28;1637;-82
2022/03/31 01:05:27;;;;;;;15.50;11.80;;;;;;;;;;514105;28;1892;-82
2022/03/31 01:05:42;;;;;;;16.23;12.13;;;;;;;;;;513252;28;1450;-82
2022/03/31 01:05:58;;;;;;;15.50;11.57;;;;;;;;;;514594;28;1754;-82
2022/03/31 01:06:13;;;;;;;15.02;11.60;;;;;;;;;;514618;28;1542;-82
2022/03/31 01:06:29;;;;;;;15.60;12.30;;;;;;;;;;514072;28;1646;-82
2022/03/31 01:06:44;;;;;;;14.87;11.87;;;;;;;;;;514367;28;1440;-82
2022/03/31 01:07:01;;;;;;;15.47;11.77;;;;;;;;;;512328;28;1425;-82
2022/03/31 01:07:16;;;;;;;15.38;11.80;;;;;;;;;;509865;28;1458;-82
2022/03/31 01:07:37;;;;;;;15.67;11.83;;;;;;;;;;508275;29;1595;-82
2022/03/31 01:07:54;;;;;;;15.02;12.02;;;;;;;;;;506421;29;1555;-82
2022/03/31 01:08:10;;;;;;;14.40;11.77;;;;;;;;;;505998;29;1414;-82
2022/03/31 01:08:26;;;;;;;14.93;11.88;;;;;;;;;;507156;29;1502;-82
2022/03/31 01:08:42;;;;;;;15.55;11.93;;;;;;;;;;508210;29;1363;-82
2022/03/31 01:08:57;;;;;;;15.50;12.05;;;;;;;;;;509767;28;1524;-82
2022/03/31 01:09:13;;;;;;;14.93;11.90;;;;;;;;;;509408;28;2050;-82
2022/03/31 01:09:31;;;;;;;14.40;11.73;;;;;;;;;;507727;29;1505;-82
2022/03/31 01:09:46;;;;;;;14.43;11.80;;;;;;;;;;509397;28;1501;-82
2022/03/31 01:10:03;;;;;;;15.60;12.10;;;;;;;;;;508934;29;1475;-82
2022/03/31 01:10:19;;;;;;;15.50;12.20;;;;;;;;;;508774;29;1441;-82
2022/03/31 01:10:34;;;;;;;15.40;12.13;;;;;;;;;;509442;29;1823;-82
2022/03/31 01:10:52;;;;;;;15.80;11.77;;;;;;;;;;510488;28;1726;-82
2022/03/31 01:11:11;;;;;;;16.45;11.85;;;;;;;;;;510727;28;1405;-82
2022/03/31 01:11:31;;;;;;;16.95;12.52;;;;;;;;;;510172;29;1536;-88
2022/03/31 01:11:47;;;;;;;16.30;12.60;;;;;;;;;;508224;29;1358;-87
2022/03/31 01:12:02;;;;;;;16.75;12.23;;;;;;;;;;512032;28;1602;-88
2022/03/31 01:12:18;;;;;;;15.37;12.10;;;;;;;;;;511017;28;1968;-86
2022/03/31 01:12:34;;;;;;;14.98;12.00;;;;;;;;;;511216;29;1491;-88
2022/03/31 01:12:50;;;;;;;16.30;12.50;;;;;;;;;;511458;28;1460;-90
2022/03/31 01:13:09;;;;;;;16.35;12.20;;;;;;;;;;511186;28;1334;-87
2022/03/31 01:13:25;;;;;;;15.88;11.63;;;;;;;;;;511953;28;1791;-86
2022/03/31 01:13:40;;;;;;;14.98;11.75;;;;;;;;;;514784;28;1312;-85
2022/03/31 01:13:57;;;;;;;15.75;12.27;;;;;;;;;;516237;28;1646;-86
2022/03/31 01:14:12;;;;;;;15.88;12.30;;;;;;;;;;513177;28;1559;-87
2022/03/31 01:14:29;;;;;;;15.27;12.47;;;;;;;;;;510981;29;1556;-86
2022/03/31 01:14:45;;;;;;;16.48;12.60;;;;;;;;;;511873;28;1728;-87
2022/03/31 01:15:14;;;;;;;15.10;12.00;;;;;;;;;;509488;29;1477;-86
2022/03/31 01:15:29;;;;;;;15.73;12.40;;;;;;;;;;507343;29;1459;-86
2022/03/31 01:15:45;;;;;;;14.98;12.27;;;;;;;;;;508867;29;1530;-89
2022/03/31 01:16:01;;;;;;;14.20;11.87;;;;;;;;;;509304;28;1398;-87
2022/03/31 01:16:16;;;;;;;14.75;11.68;;;;;;;;;;510664;28;1334;-86
2022/03/31 01:16:32;;;;;;;15.05;11.65;;;;;;;;;;512791;28;1461;-85
2022/03/31 01:16:47;;;;;;;14.20;11.70;;;;;;;;;;512428;28;1430;-85
2022/03/31 01:17:03;;;;;;;14.05;11.82;;;;;;;;;;513235;28;1577;-88
2022/03/31 01:17:18;;;;;;;14.63;11.87;;;;;;;;;;514198;28;1475;-88
2022/03/31 01:17:35;;;;;;;15.40;12.00;;;;;;;;;;510955;28;1461;-85
2022/03/31 01:17:50;;;;;;;15.98;12.23;;;;;;;;;;509868;29;1729;-89
2022/03/31 01:18:06;;;;;;;16.73;12.77;;;;;;;;;;507470;29;1405;-85
2022/03/31 01:18:21;;;;;;;15.57;12.30;;;;;;;;;;507171;29;1577;-87
2022/03/31 01:18:37;;;;;;;15.10;12.02;;;;;;;;;;507597;29;1296;-86
2022/03/31 01:18:53;;;;;;;16.83;12.17;;;;;;;;;;507771;29;1514;-87
2022/03/31 01:19:10;;;;;;;16.25;12.10;;;;;;;;;;509556;29;1563;-85
2022/03/31 01:19:25;;;;;;;15.60;12.23;;;;;;;;;;511829;28;1370;-88
2022/03/31 01:19:41;;;;;;;15.38;12.45;;;;;;;;;;513637;28;1456;-86
2022/03/31 01:19:57;;;;;;;15.45;12.32;;;;;;;;;;512051;28;1508;-85
2022/03/31 01:20:20;;;;;;;16.83;12.30;;;;;;;;;;513394;28;1642;-85
2022/03/31 01:20:36;;;;;;;16.08;12.25;;;;;;;;;;512827;28;1586;-87
2022/03/31 01:20:52;;;;;;;15.25;12.10;;;;;;;;;;513386;28;1598;-89
2022/03/31 01:21:09;;;;;;;15.60;11.77;;;;;;;;;;513925;28;1571;-87
2022/03/31 01:21:25;;;;;;;15.95;11.82;;;;;;;;;;511212;29;1416;-85
2022/03/31 01:21:43;;;;;;;15.53;12.00;;;;;;;;;;511339;28;1787;-88
2022/03/31 01:21:59;;;;;;;16.10;12.10;;;;;;;;;;508357;29;1863;-86
2022/03/31 01:22:14;;;;;;;15.37;12.17;;;;;;;;;;507251;29;1240;-88
2022/03/31 01:22:31;;;;;;;14.40;11.93;;;;;;;;;;508683;29;1644;-86
2022/03/31 01:22:50;;;;;;;15.25;12.10;;;;;;;;;;510894;28;1791;-85
2022/03/31 01:23:14;;;;;;;15.88;12.30;;;;;;;;;;510776;29;1407;-87
2022/03/31 01:23:30;;;;;;;14.55;12.00;;;;;;;;;;511312;28;1564;-85
2022/03/31 01:23:46;;;;;;;14.63;12.18;;;;;;;;;;511444;28;1393;-89
2022/03/31 01:24:02;;;;;;;14.02;11.73;;;;;;;;;;511601;28;1651;-85
2022/03/31 01:24:18;;;;;;;13.80;11.60;;;;;;;;;;510794;28;1450;-87
2022/03/31 01:24:34;;;;;;;15.15;11.88;;;;;;;;;;511723;28;1979;-86
2022/03/31 01:24:50;;;;;;;15.35;12.02;;;;;;;;;;511608;28;1721;-89
2022/03/31 01:25:07;;;;;;;15.93;11.82;;;;;;;;;;513565;28;1795;-86
2022/03/31 01:25:22;;;;;;;17.33;12.07;;;;;;;;;;511017;29;1614;-87
2022/03/31 01:25:40;;;;;;;15.97;12.30;;;;;;;;;;512564;28;1653;-85
2022/03/31 01:25:56;;;;;;;14.63;11.80;;;;;;;;;;513540;28;1554;-90
2022/03/31 01:26:12;;;;;;;15.23;12.07;;;;;;;;;;512541;28;1543;-85
2022/03/31 01:26:28;;;;;;;16.17;12.48;;;;;;;;;;511453;28;1595;-85
2022/03/31 01:26:43;;;;;;;15.30;12.03;;;;;;;;;;511269;28;1646;-86
2022/03/31 01:26:59;;;;;;;16.23;12.02;;;;;;;;;;511373;29;1438;-86
2022/03/31 01:27:14;;;;;;;16.58;12.15;;;;;;;;;;510066;29;1568;-86
2022/03/31 01:27:30;;;;;;;15.70;12.10;;;;;;;;;;510088;29;1497;-85
2022/03/31 01:27:46;;;;;;;16.10;12.53;;;;;;;;;;510012;29;1688;-86
2022/03/31 01:28:02;;;;;;;15.77;12.43;;;;;;;;;;510154;29;1532;-85
2022/03/31 01:28:18;;;;;;;15.20;12.18;;;;;;;;;;510093;28;1703;-86
2022/03/31 01:28:34;;;;;;;14.73;12.00;;;;;;;;;;509098;29;1420;-85
2022/03/31 01:28:51;;;;;;;14.95;12.07;;;;;;;;;;511056;29;1349;-86
2022/03/31 01:29:08;;;;;;;16.17;12.60;;;;;;;;;;509426;29;1444;-86
2022/03/31 01:29:27;;;;;;;15.73;12.00;;;;;;;;;;507256;29;1651;-86
2022/03/31 01:29:42;;;;;;;15.65;11.85;;;;;;;;;;510546;29;1500;-86
2022/03/31 01:29:57;;;;;;;15.80;12.23;;;;;;;;;;509248;29;1334;-86
2022/03/31 01:30:19;;;;;;;14.63;12.03;;;;;;;;;;509267;29;1525;-89
2022/03/31 01:30:34;;;;;;;16.02;12.27;;;;;;;;;;509426;29;1497;-86
2022/03/31 01:30:49;;;;;;;16.90;12.70;;;;;;;;;;509721;29;1287;-86
2022/03/31 01:31:07;;;;;;;15.15;12.10;;;;;;;;;;509572;29;1441;-87
2022/03/31 01:31:22;;;;;;;14.30;11.73;;;;;;;;;;507066;29;1628;-86
2022/03/31 01:31:38;;;;;;;14.83;11.87;;;;;;;;;;508969;29;1428;-88
2022/03/31 01:31:54;;;;;;;15.63;12.32;;;;;;;;;;508962;29;1442;-85
2022/03/31 01:32:10;;;;;;;15.93;12.68;;;;;;;;;;509644;29;1974;-86
2022/03/31 01:32:25;;;;;;;15.80;12.00;;;;;;;;;;510324;29;1436;-86
2022/03/31 01:32:43;;;;;;;15.05;11.65;;;;;;;;;;511324;29;1324;-86
2022/03/31 01:32:58;;;;;;;14.68;11.63;;;;;;;;;;511280;29;1419;-86
2022/03/31 01:33:14;;;;;;;14.90;11.60;;;;;;;;;;512398;28;1571;-87
2022/03/31 01:33:29;;;;;;;14.73;11.48;;;;;;;;;;514440;28;1462;-85
2022/03/31 01:33:45;;;;;;;14.80;11.50;;;;;;;;;;514249;28;1590;-86
2022/03/31 01:34:00;;;;;;;14.00;11.67;;;;;;;;;;515267;28;1580;-86
2022/03/31 01:34:16;;;;;;;13.63;11.68;;;;;;;;;;513511;28;1582;-85
2022/03/31 01:34:31;;;;;;;13.93;11.80;;;;;;;;;;513983;28;1369;-87
2022/03/31 01:34:47;;;;;;;14.05;12.05;;;;;;;;;;514314;28;1530;-85
2022/03/31 01:35:04;;;;;;;15.82;12.27;;;;;;;;;;511266;29;1587;-85
2022/03/31 01:35:19;;;;;;;16.75;12.02;;;;;;;;;;511179;28;1612;-90
2022/03/31 01:35:35;;;;;;;15.93;12.00;;;;;;;;;;511318;28;1430;-86
2022/03/31 01:35:50;;;;;;;15.17;11.77;;;;;;;;;;509858;29;1489;-88
2022/03/31 01:36:07;;;;;;;14.57;11.90;;;;;;;;;;509531;29;1457;-88
2022/03/31 01:36:22;;;;;;;15.18;12.43;;;;;;;;;;511682;28;1485;-87
2022/03/31 01:36:38;;;;;;;15.77;12.38;;;;;;;;;;511000;28;1568;-85
2022/03/31 01:36:53;;;;;;;15.57;12.27;;;;;;;;;;509690;29;1563;-88
2022/03/31 01:37:09;;;;;;;14.60;12.07;;;;;;;;;;509472;29;1672;-85
2022/03/31 01:37:24;;;;;;;13.90;12.00;;;;;;;;;;508961;29;1442;-86
2022/03/31 01:37:41;;;;;;;14.75;12.10;;;;;;;;;;509207;29;1779;-87
2022/03/31 01:37:57;;;;;;;16.15;12.40;;;;;;;;;;508975;29;1486;-87